Time;durP1;ratioP1;P1;durP2;ratioP2;P2;SDS_P1;SDS_P2;PMS_P1;PMS_P2;Temp;Humidity;BMP_temperature;BMP_pressure;BME280_temperature;BME280_humidity;BME280_pressure;Samples;Min_cycle;Max_cycle;Signal;HPM_P1;HPM_P2
2022/09/20 00:00:35;;;;;;;0.00;0.00;;;16.80;70.90;;;;;;4994118;28;20082;-76
2022/09/20 00:03:01;;;;;;;0.00;0.00;;;16.80;71.00;;;;;;5026415;28;20070;-76
2022/09/20 00:05:27;;;;;;;0.00;0.00;;;16.80;71.30;;;;;;5028566;28;20037;-76
2022/09/20 00:07:52;;;;;;;0.25;0.10;;;16.80;71.00;;;;;;5030341;28;20248;-76
2022/09/20 00:10:18;;;;;;;0.00;0.00;;;16.80;71.00;;;;;;5032011;28;20491;-76
2022/09/20 00:12:44;;;;;;;0.00;0.00;;;16.80;71.00;;;;;;5013986;28;20038;-76
2022/09/20 00:15:10;;;;;;;0.00;0.00;;;16.80;70.90;;;;;;4997235;28;20033;-76
2022/09/20 00:17:35;;;;;;;0.28;0.17;;;16.80;71.00;;;;;;5031563;28;20033;-76
2022/09/20 00:20:01;;;;;;;0.00;0.00;;;16.90;71.00;;;;;;5030344;28;20025;-76
2022/09/20 00:22:27;;;;;;;0.00;0.00;;;16.90;71.00;;;;;;5031731;28;20045;-76
2022/09/20 00:24:52;;;;;;;0.00;0.00;;;16.90;71.00;;;;;;5013604;28;20034;-76
2022/09/20 00:27:18;;;;;;;0.00;0.00;;;16.90;71.00;;;;;;5031422;28;20449;-76
2022/09/20 00:29:44;;;;;;;0.00;0.00;;;16.90;71.00;;;;;;5030088;28;20083;-76
2022/09/20 00:32:09;;;;;;;0.00;0.00;;;16.90;71.00;;;;;;5030070;28;20091;-76
2022/09/20 00:37:19;;;;;;;0.00;0.00;;;16.80;70.90;;;;;;5016572;28;20032;-76
2022/09/20 00:39:45;;;;;;;0.20;0.10;;;16.80;71.00;;;;;;5029891;28;20029;-76
2022/09/20 00:42:13;;;;;;;0.05;0.05;;;16.80;71.00;;;;;;5013490;28;20507;-77
2022/09/20 00:44:46;;;;;;;0.43;0.00;;;16.80;71.00;;;;;;5030917;28;20030;-76
2022/09/20 00:47:21;;;;;;;0.00;0.00;;;16.80;71.00;;;;;;5030970;28;20052;-76
2022/09/20 00:49:48;;;;;;;0.00;0.00;;;16.80;71.00;;;;;;5030770;28;20045;-76
2022/09/20 00:52:14;;;;;;;0.00;0.00;;;16.80;71.00;;;;;;5030932;28;20021;-76
2022/09/20 00:54:40;;;;;;;0.00;0.00;;;16.80;71.00;;;;;;5029475;28;20089;-76
2022/09/20 00:57:06;;;;;;;0.00;0.00;;;16.80;71.00;;;;;;5030760;28;20038;-76
2022/09/20 00:59:36;;;;;;;0.00;0.00;;;16.80;71.00;;;;;;5029467;28;20079;-76
2022/09/20 01:02:18;;;;;;;0.00;0.00;;;16.80;71.00;;;;;;5030736;28;20056;-76
2022/09/20 01:04:46;;;;;;;0.00;0.00;;;16.70;71.00;;;;;;5029392;28;20029;-76
2022/09/20 01:07:15;;;;;;;0.00;0.00;;;16.80;71.00;;;;;;5030598;28;20104;-76
2022/09/20 01:09:41;;;;;;;0.00;0.00;;;16.70;71.00;;;;;;5029182;28;20389;-76
2022/09/20 01:12:13;;;;;;;0.05;0.03;;;16.70;71.00;;;;;;5030681;28;20028;-76
2022/09/20 01:14:41;;;;;;;0.00;0.00;;;16.70;71.00;;;;;;5029044;28;20029;-76
2022/09/20 01:17:09;;;;;;;0.00;0.00;;;16.70;71.00;;;;;;5029562;28;20060;-76
2022/09/20 01:19:56;;;;;;;0.00;0.00;;;16.70;71.00;;;;;;5030462;28;20442;-76
2022/09/20 01:22:55;;;;;;;0.22;0.10;;;16.70;71.10;;;;;;5030411;28;20026;-76
2022/09/20 01:25:54;;;;;;;0.00;0.00;;;16.60;71.10;;;;;;5028998;28;20034;-76
2022/09/20 01:28:21;;;;;;;0.00;0.00;;;16.60;71.10;;;;;;5030259;28;20056;-76
2022/09/20 01:31:07;;;;;;;0.00;0.00;;;16.60;71.10;;;;;;5030299;28;20385;-76
2022/09/20 01:33:56;;;;;;;0.00;0.00;;;16.60;71.10;;;;;;5028591;28;20033;-76
2022/09/20 01:36:38;;;;;;;0.00;0.00;;;16.60;71.10;;;;;;5030178;28;20025;-75
2022/09/20 01:39:31;;;;;;;0.00;0.00;;;16.60;71.10;;;;;;5030307;28;20027;-76
2022/09/20 01:42:00;;;;;;;0.00;0.00;;;16.60;71.10;;;;;;5030084;28;20021;-76
2022/09/20 01:44:50;;;;;;;0.00;0.00;;;16.60;71.10;;;;;;5028696;28;20049;-76
2022/09/20 01:47:25;;;;;;;0.00;0.00;;;16.50;71.10;;;;;;5029769;28;20377;-76
2022/09/20 01:49:59;;;;;;;0.10;0.08;;;16.50;71.10;;;;;;5029587;28;20051;-76
2022/09/20 01:52:54;;;;;;;0.00;0.00;;;16.50;71.10;;;;;;5028685;28;20124;-76
2022/09/20 01:55:23;;;;;;;0.00;0.00;;;16.50;71.10;;;;;;5028102;28;20025;-76
2022/09/20 01:58:07;;;;;;;0.00;0.00;;;16.50;71.10;;;;;;5028365;28;20022;-76
2022/09/20 02:00:38;;;;;;;0.00;0.00;;;16.50;71.10;;;;;;5029501;28;20067;-77
2022/09/20 02:03:30;;;;;;;0.00;0.00;;;16.50;71.10;;;;;;5029473;28;20025;-77
2022/09/20 02:06:34;;;;;;;0.00;0.00;;;16.50;71.10;;;;;;5028042;28;20477;-77
2022/09/20 02:09:11;;;;;;;0.00;0.00;;;16.50;71.10;;;;;;4971173;28;20479;-77
2022/09/20 02:12:05;;;;;;;0.00;0.00;;;16.60;71.10;;;;;;4971375;28;20034;-77
2022/09/20 02:14:43;;;;;;;0.00;0.00;;;16.50;71.10;;;;;;5011865;28;20029;-77
2022/09/20 02:17:17;;;;;;;0.00;0.00;;;16.50;71.10;;;;;;5027878;28;20037;-77
2022/09/20 02:20:07;;;;;;;0.00;0.00;;;16.50;71.10;;;;;;5029279;28;20158;-77
2022/09/20 02:22:45;;;;;;;0.00;0.00;;;16.50;71.10;;;;;;5029132;28;20048;-77
2022/09/20 02:25:26;;;;;;;0.00;0.00;;;16.40;71.10;;;;;;5027702;28;20028;-77
2022/09/20 02:28:14;;;;;;;0.00;0.00;;;16.40;71.10;;;;;;5029152;28;20485;-77
2022/09/20 02:30:45;;;;;;;0.00;0.00;;;16.40;71.10;;;;;;5029520;28;20124;-77
2022/09/20 02:33:27;;;;;;;0.00;0.00;;;16.30;71.10;;;;;;5027515;28;20091;-77
2022/09/20 02:36:07;;;;;;;0.00;0.00;;;16.30;71.10;;;;;;5028905;28;20028;-77
2022/09/20 02:38:55;;;;;;;0.00;0.00;;;16.20;71.10;;;;;;5028816;28;20021;-77
2022/09/20 02:41:48;;;;;;;0.00;0.00;;;16.20;71.20;;;;;;5029357;28;20028;-77
2022/09/20 02:44:44;;;;;;;0.00;0.00;;;16.10;71.10;;;;;;5027590;28;20075;-77
2022/09/20 02:47:34;;;;;;;0.00;0.00;;;16.10;71.20;;;;;;5028596;28;20441;-77
2022/09/20 02:50:27;;;;;;;0.00;0.00;;;16.10;71.20;;;;;;5028499;28;20050;-77
2022/09/20 02:53:23;;;;;;;0.00;0.00;;;16.00;71.20;;;;;;5027742;28;20025;-77
2022/09/20 02:56:04;;;;;;;0.00;0.00;;;16.00;71.20;;;;;;5027101;28;20021;-77
2022/09/20 02:58:45;;;;;;;0.00;0.00;;;16.00;71.20;;;;;;5028473;28;20025;-77
2022/09/20 03:01:59;;;;;;;0.00;0.00;;;16.00;71.30;;;;;;5027160;28;20033;-77
2022/09/20 03:04:44;;;;;;;0.00;0.00;;;16.00;71.30;;;;;;5013873;28;20444;-77
2022/09/20 03:07:33;;;;;;;0.00;0.00;;;16.00;71.30;;;;;;5025564;28;20041;-77
2022/09/20 03:10:01;;;;;;;0.00;0.00;;;16.00;71.30;;;;;;5027118;28;20087;-77
2022/09/20 03:12:48;;;;;;;0.00;0.00;;;16.00;71.20;;;;;;5028163;28;20424;-77
2022/09/20 03:15:41;;;;;;;0.20;0.20;;;16.00;71.20;;;;;;5028172;28;20020;-77
2022/09/20 03:18:13;;;;;;;0.00;0.00;;;16.00;71.20;;;;;;5028121;28;20036;-77
2022/09/20 03:20:42;;;;;;;0.00;0.00;;;16.00;71.20;;;;;;5028253;28;20029;-77
2022/09/20 03:23:16;;;;;;;0.10;0.00;;;16.00;71.20;;;;;;5027913;28;20108;-77
2022/09/20 03:26:05;;;;;;;0.00;0.00;;;16.00;71.20;;;;;;5028004;28;20029;-77
2022/09/20 03:29:00;;;;;;;0.00;0.00;;;16.00;71.20;;;;;;5027998;28;20075;-77
2022/09/20 03:31:47;;;;;;;0.00;0.00;;;16.00;71.20;;;;;;5026508;28;20067;-77
2022/09/20 03:34:26;;;;;;;0.00;0.00;;;16.00;71.20;;;;;;5027883;28;20029;-77
2022/09/20 03:36:54;;;;;;;0.00;0.00;;;16.00;71.20;;;;;;5027827;28;20026;-77
2022/09/20 03:39:53;;;;;;;0.00;0.00;;;15.90;71.20;;;;;;5026137;28;20025;-77
2022/09/20 03:42:28;;;;;;;0.10;0.00;;;15.80;71.80;;;;;;5027663;28;20470;-77
2022/09/20 03:44:57;;;;;;;0.00;0.00;;;15.80;71.50;;;;;;5027746;28;20075;-77
2022/09/20 03:47:46;;;;;;;0.25;0.10;;;15.70;71.60;;;;;;5027633;28;20036;-77
2022/09/20 03:50:27;;;;;;;0.00;0.00;;;15.60;71.60;;;;;;5026001;28;20046;-77
2022/09/20 03:52:55;;;;;;;0.00;0.00;;;15.60;71.60;;;;;;5027532;28;20533;-77
2022/09/20 03:55:42;;;;;;;0.00;0.00;;;15.60;71.60;;;;;;5027476;28;20026;-77
2022/09/20 03:58:34;;;;;;;0.00;0.00;;;15.60;71.60;;;;;;5027886;28;20427;-77
2022/09/20 04:01:15;;;;;;;0.00;0.00;;;15.50;71.60;;;;;;5027330;28;20550;-77
2022/09/20 04:04:11;;;;;;;0.00;0.00;;;15.40;71.60;;;;;;5027575;28;20359;-77
2022/09/20 04:06:55;;;;;;;0.00;0.00;;;15.40;71.60;;;;;;5026113;28;20276;-77
2022/09/20 04:09:32;;;;;;;0.00;0.00;;;15.30;71.60;;;;;;5027539;28;20060;-77
2022/09/20 04:12:19;;;;;;;0.00;0.00;;;15.30;71.70;;;;;;5027599;28;20038;-77
2022/09/20 04:15:25;;;;;;;0.00;0.00;;;15.30;71.70;;;;;;5027461;28;20118;-77
2022/09/20 04:18:08;;;;;;;0.00;0.00;;;15.20;71.70;;;;;;5027632;28;20478;-77
2022/09/20 04:21:00;;;;;;;0.00;0.00;;;15.20;71.60;;;;;;5027403;28;20033;-77
2022/09/20 04:23:41;;;;;;;0.00;0.00;;;15.20;71.70;;;;;;5027258;28;20109;-77
2022/09/20 04:26:07;;;;;;;0.00;0.00;;;15.10;71.60;;;;;;5026009;28;20026;-77
2022/09/20 04:28:42;;;;;;;0.00;0.00;;;15.10;71.70;;;;;;5027439;28;20490;-77
2022/09/20 04:31:31;;;;;;;0.00;0.00;;;15.10;71.60;;;;;;5027147;28;20482;-77
2022/09/20 04:33:59;;;;;;;0.00;0.00;;;15.10;71.60;;;;;;5027221;28;20045;-77
2022/09/20 04:37:01;;;;;;;0.00;0.00;;;15.10;71.60;;;;;;5027295;28;20048;-77
2022/09/20 04:39:47;;;;;;;0.00;0.00;;;15.00;71.60;;;;;;5026018;28;20029;-77
2022/09/20 04:42:45;;;;;;;0.00;0.00;;;14.90;72.00;;;;;;5027183;28;20029;-77
2022/09/20 04:45:37;;;;;;;0.00;0.00;;;14.80;71.50;;;;;;5025823;28;20643;-77
2022/09/20 04:48:21;;;;;;;0.00;0.00;;;14.80;71.50;;;;;;5027041;28;20033;-77
2022/09/20 04:51:06;;;;;;;0.00;0.00;;;14.60;71.50;;;;;;5025741;28;20102;-77
2022/09/20 04:53:42;;;;;;;0.00;0.00;;;14.60;71.50;;;;;;5029491;28;20513;-77
2022/09/20 04:56:31;;;;;;;0.00;0.00;;;14.50;71.50;;;;;;5030979;28;20037;-76
2022/09/20 04:59:19;;;;;;;0.00;0.00;;;14.40;71.50;;;;;;5030582;28;20018;-77
2022/09/20 05:01:45;;;;;;;0.00;0.00;;;14.40;71.60;;;;;;5029500;28;20026;-77
2022/09/20 05:04:44;;;;;;;0.00;0.00;;;14.30;71.60;;;;;;5030723;28;20109;-77
2022/09/20 05:07:47;;;;;;;0.00;0.00;;;14.20;71.60;;;;;;5029372;28;20047;-77
2022/09/20 05:10:39;;;;;;;0.00;0.00;;;14.10;71.60;;;;;;5029105;28;20036;-77
2022/09/20 05:13:14;;;;;;;0.00;0.00;;;14.10;71.60;;;;;;5030694;28;20037;-77
2022/09/20 05:16:14;;;;;;;0.00;0.00;;;14.00;71.60;;;;;;5029209;28;20099;-77
2022/09/20 05:19:29;;;;;;;0.00;0.00;;;13.90;72.10;;;;;;5029103;28;20028;-77
2022/09/20 05:22:00;;;;;;;0.00;0.00;;;13.80;71.60;;;;;;5019741;28;20034;-77
2022/09/20 05:25:18;;;;;;;0.00;0.00;;;13.80;71.60;;;;;;5030162;28;20160;-76
2022/09/20 05:28:12;;;;;;;0.00;0.00;;;13.70;71.60;;;;;;5019401;28;20048;-77
2022/09/20 05:31:19;;;;;;;0.00;0.00;;;13.70;71.60;;;;;;5030146;28;20022;-77
2022/09/20 05:34:15;;;;;;;0.00;0.00;;;13.70;71.60;;;;;;5025422;28;20029;-77
2022/09/20 05:37:11;;;;;;;0.00;0.00;;;13.60;71.60;;;;;;5028869;28;20036;-77
2022/09/20 05:39:56;;;;;;;0.00;0.00;;;13.50;71.50;;;;;;5029962;28;20120;-77
2022/09/20 05:42:47;;;;;;;0.00;0.00;;;13.50;71.60;;;;;;5028500;28;20433;-77
2022/09/20 05:45:25;;;;;;;0.00;0.00;;;13.40;71.60;;;;;;5029702;28;20025;-76
2022/09/20 05:48:12;;;;;;;0.00;0.00;;;13.40;71.50;;;;;;5029577;28;20026;-77
2022/09/20 05:50:57;;;;;;;0.00;0.00;;;13.40;71.60;;;;;;5029349;28;20458;-77
2022/09/20 05:53:49;;;;;;;0.00;0.00;;;13.30;71.50;;;;;;5029386;28;20049;-77
2022/09/20 05:56:15;;;;;;;0.00;0.00;;;13.30;71.60;;;;;;5029540;28;20022;-77
2022/09/20 05:58:54;;;;;;;0.00;0.00;;;13.20;71.60;;;;;;5028343;28;20359;-76
2022/09/20 06:01:28;;;;;;;0.00;0.00;;;13.20;71.60;;;;;;5030572;28;20033;-77
2022/09/20 06:04:16;;;;;;;0.00;0.00;;;13.20;71.60;;;;;;5030634;28;20047;-76
2022/09/20 06:06:48;;;;;;;0.00;0.00;;;13.20;71.70;;;;;;5031380;28;20071;-77
2022/09/20 06:09:49;;;;;;;0.00;0.00;;;13.20;71.60;;;;;;5029651;28;20053;-77
2022/09/20 06:12:28;;;;;;;0.00;0.00;;;13.20;71.60;;;;;;5029304;28;20033;-76
2022/09/20 06:15:02;;;;;;;0.00;0.00;;;13.20;71.50;;;;;;5029349;28;20010;-76
2022/09/20 06:17:35;;;;;;;0.00;0.00;;;13.20;71.50;;;;;;5029289;28;20025;-76
2022/09/20 06:20:22;;;;;;;0.00;0.00;;;13.30;71.60;;;;;;5029128;28;20069;-77
2022/09/20 06:22:54;;;;;;;0.00;0.00;;;13.30;71.60;;;;;;5029185;28;20045;-77
2022/09/20 06:25:41;;;;;;;0.35;0.20;;;13.30;71.60;;;;;;5027550;28;20034;-76
2022/09/20 06:28:34;;;;;;;0.00;0.00;;;13.30;71.60;;;;;;5028009;28;20490;-77
2022/09/20 06:31:00;;;;;;;0.00;0.00;;;13.30;71.60;;;;;;5025017;28;20490;-77
2022/09/20 06:33:27;;;;;;;;;;;13.40;71.60;;;;;;5029495;28;20034;-77
2022/09/20 06:42:06;;;;;;;0.00;0.00;;;13.90;72.30;;;;;;5028714;28;20047;-77
2022/09/20 06:44:32;;;;;;;0.00;0.00;;;14.10;71.70;;;;;;5027472;28;20311;-77
2022/09/20 06:46:59;;;;;;;0.00;0.00;;;14.30;71.70;;;;;;5027140;28;20494;-76
2022/09/20 06:49:26;;;;;;;;;;;14.50;71.70;;;;;;5010771;28;20103;-77
2022/09/20 06:51:51;;;;;;;0.00;0.00;;;14.60;71.60;;;;;;5027523;28;19913;-78
2022/09/20 06:54:20;;;;;;;0.00;0.00;;;14.80;71.60;;;;;;5027979;28;20394;-76
2022/09/20 06:56:48;;;;;;;0.00;0.00;;;14.90;71.50;;;;;;5026598;28;20509;-76
2022/09/20 06:59:14;;;;;;;0.10;0.10;;;14.90;71.50;;;;;;5027707;28;20021;-78
2022/09/20 07:01:40;;;;;;;0.00;0.00;;;15.00;71.50;;;;;;5026661;28;20477;-78
2022/09/20 07:04:07;;;;;;;0.00;0.00;;;15.10;71.60;;;;;;5026681;28;20487;-78
2022/09/20 07:06:33;;;;;;;0.00;0.00;;;15.20;71.60;;;;;;5010187;28;20040;-77
2022/09/20 07:08:58;;;;;;;0.00;0.00;;;15.30;71.70;;;;;;5027914;28;20437;-78
2022/09/20 07:11:24;;;;;;;0.00;0.00;;;15.50;71.70;;;;;;5027990;28;20434;-78
2022/09/20 07:13:55;;;;;;;0.00;0.00;;;15.60;71.80;;;;;;5027579;28;20036;-78
2022/09/20 07:16:21;;;;;;;0.00;0.00;;;15.70;71.80;;;;;;5028223;28;20429;-78
2022/09/20 07:18:48;;;;;;;0.00;0.00;;;15.90;71.80;;;;;;5009959;28;20021;-78
2022/09/20 07:21:16;;;;;;;0.00;0.00;;;16.10;71.70;;;;;;5027739;28;20038;-77
2022/09/20 07:23:44;;;;;;;0.00;0.00;;;16.30;71.70;;;;;;5027776;28;20029;-78
2022/09/20 07:26:22;;;;;;;0.00;0.00;;;16.60;71.60;;;;;;5026126;28;20033;-78
2022/09/20 07:28:48;;;;;;;0.00;0.00;;;16.80;71.60;;;;;;5027962;28;20029;-78
2022/09/20 07:31:18;;;;;;;0.00;0.00;;;17.00;71.60;;;;;;5026153;28;20394;-78
2022/09/20 07:33:44;;;;;;;0.00;0.00;;;17.20;71.60;;;;;;5027687;28;20025;-78
2022/09/20 07:36:13;;;;;;;0.00;0.00;;;17.40;71.60;;;;;;5026107;28;20387;-80
2022/09/20 07:38:40;;;;;;;0.00;0.00;;;17.60;71.60;;;;;;5026960;28;20069;-80
2022/09/20 07:41:07;;;;;;;0.00;0.00;;;17.80;71.40;;;;;;5027030;28;20124;-78
2022/09/20 07:43:33;;;;;;;0.00;0.00;;;17.90;71.30;;;;;;5027130;28;20124;-79
2022/09/20 07:45:59;;;;;;;;;;;18.00;71.30;;;;;;5027318;28;20034;-78
2022/09/20 07:48:30;;;;;;;0.00;0.00;;;18.00;71.20;;;;;;5027044;28;19909;-78
2022/09/20 07:51:00;;;;;;;0.00;0.00;;;18.10;71.20;;;;;;5027055;28;20053;-78
2022/09/20 07:53:27;;;;;;;0.00;0.00;;;18.10;71.20;;;;;;5025418;28;20025;-78
2022/09/20 07:56:12;;;;;;;;;;;18.10;71.20;;;;;;5027256;28;20371;-78
2022/09/20 07:58:38;;;;;;;0.00;0.00;;;18.00;71.10;;;;;;5027008;28;20155;-78
2022/09/20 08:01:09;;;;;;;0.00;0.00;;;18.00;71.10;;;;;;5025471;28;20033;-78
2022/09/20 08:03:36;;;;;;;0.00;0.00;;;18.00;71.20;;;;;;5025195;28;20083;-78
2022/09/20 08:06:10;;;;;;;0.00;0.00;;;18.00;71.30;;;;;;5026270;28;20022;-78
2022/09/20 08:08:39;;;;;;;0.00;0.00;;;18.00;71.30;;;;;;5025349;28;20041;-78
2022/09/20 08:11:08;;;;;;;0.00;0.00;;;18.10;71.40;;;;;;5027170;28;20108;-78
2022/09/20 08:13:43;;;;;;;0.00;0.00;;;18.10;71.30;;;;;;5026591;28;20163;-77
2022/09/20 08:16:10;;;;;;;0.00;0.00;;;18.10;71.30;;;;;;5026377;28;20104;-77
2022/09/20 08:18:36;;;;;;;0.00;0.00;;;18.20;71.30;;;;;;5022541;28;20075;-76
2022/09/20 08:21:10;;;;;;;0.03;0.03;;;18.20;71.30;;;;;;5024903;28;20322;-77
2022/09/20 08:23:37;;;;;;;0.00;0.00;;;18.20;71.40;;;;;;5026439;28;20124;-77
2022/09/20 08:26:04;;;;;;;0.00;0.00;;;18.20;71.30;;;;;;5026812;28;20048;-76
2022/09/20 08:28:31;;;;;;;0.00;0.00;;;18.20;71.50;;;;;;5029183;28;20029;-76
2022/09/20 08:31:05;;;;;;;0.00;0.00;;;18.20;71.50;;;;;;5012183;28;20026;-77
2022/09/20 08:33:31;;;;;;;0.00;0.00;;;18.20;71.50;;;;;;5029930;28;20052;-77
2022/09/20 08:35:57;;;;;;;0.00;0.00;;;18.20;71.60;;;;;;5029932;28;20024;-76
2022/09/20 08:38:26;;;;;;;0.00;0.00;;;18.30;71.60;;;;;;5023682;28;20037;-77
2022/09/20 08:41:02;;;;;;;0.05;0.00;;;18.40;71.70;;;;;;5021019;28;20026;-76
2022/09/20 08:43:37;;;;;;;0.00;0.00;;;18.50;71.70;;;;;;5009430;28;20041;-76
2022/09/20 08:46:08;;;;;;;0.00;0.00;;;18.70;71.80;;;;;;5009239;28;20057;-74
2022/09/20 08:48:34;;;;;;;0.00;0.00;;;18.80;71.80;;;;;;5010612;28;20108;-73
2022/09/20 08:51:06;;;;;;;0.00;0.00;;;19.00;71.80;;;;;;5009992;28;20104;-74
2022/09/20 08:53:33;;;;;;;0.13;0.00;;;19.10;71.60;;;;;;5010362;28;20094;-74
2022/09/20 08:56:00;;;;;;;0.00;0.00;;;19.20;71.50;;;;;;4992530;28;20588;-74
2022/09/20 08:58:26;;;;;;;0.00;0.00;;;19.30;71.50;;;;;;5010601;28;20026;-75
2022/09/20 09:00:55;;;;;;;0.00;0.00;;;19.40;71.50;;;;;;5009277;28;20076;-75
2022/09/20 09:03:21;;;;;;;0.00;0.00;;;19.40;71.50;;;;;;4992502;28;20425;-74
2022/09/20 09:05:52;;;;;;;0.00;0.00;;;19.60;71.60;;;;;;5009996;28;20045;-74
2022/09/20 09:08:29;;;;;;;0.00;0.00;;;19.70;71.60;;;;;;5011926;28;20088;-75
2022/09/20 09:11:07;;;;;;;0.00;0.00;;;19.80;71.50;;;;;;5011639;28;20113;-75
2022/09/20 09:13:56;;;;;;;0.00;0.00;;;19.90;72.00;;;;;;5010181;28;20359;-75
2022/09/20 09:16:25;;;;;;;0.00;0.00;;;20.10;71.50;;;;;;5011688;28;20014;-75
2022/09/20 09:18:52;;;;;;;0.00;0.00;;;20.10;71.30;;;;;;5010428;28;20034;-74
2022/09/20 09:21:19;;;;;;;;;;;20.10;71.40;;;;;;5010268;28;20469;-75
2022/09/20 09:24:13;;;;;;;0.00;0.00;;;20.20;71.40;;;;;;5018518;28;20333;-74
2022/09/20 09:26:42;;;;;;;0.00;0.00;;;20.30;71.30;;;;;;5029291;28;20092;-74
2022/09/20 09:29:18;;;;;;;0.00;0.00;;;20.30;71.10;;;;;;5014705;28;20038;-76
2022/09/20 09:31:47;;;;;;;0.00;0.00;;;20.40;71.20;;;;;;5012545;28;20044;-75
2022/09/20 09:34:22;;;;;;;0.00;0.00;;;20.40;71.40;;;;;;5030938;28;20026;-76
2022/09/20 09:36:48;;;;;;;0.00;0.00;;;20.70;71.40;;;;;;5025621;28;20105;-75
2022/09/20 09:39:25;;;;;;;;;;;20.90;71.50;;;;;;5004701;28;20470;-75
2022/09/20 09:41:51;;;;;;;0.00;0.00;;;21.20;71.50;;;;;;5029830;28;20345;-75
2022/09/20 09:44:23;;;;;;;0.00;0.00;;;21.50;71.30;;;;;;5030699;28;20026;-76
2022/09/20 09:46:49;;;;;;;0.00;0.00;;;21.80;71.30;;;;;;5026561;28;20029;-74
2022/09/20 09:49:18;;;;;;;0.20;0.20;;;22.00;71.10;;;;;;5030772;28;20085;-75
2022/09/20 09:52:00;;;;;;;0.00;0.00;;;22.10;71.10;;;;;;5011460;28;20068;-75
2022/09/20 09:54:28;;;;;;;0.85;0.40;;;22.20;71.10;;;;;;5027021;28;20028;-75
2022/09/20 09:57:24;;;;;;;0.00;0.00;;;22.40;71.20;;;;;;5031034;28;20079;-76
2022/09/20 10:00:12;;;;;;;0.00;0.00;;;22.60;71.40;;;;;;5029231;28;20019;-74
2022/09/20 10:02:56;;;;;;;0.00;0.00;;;22.90;71.30;;;;;;5029891;28;20027;-75
2022/09/20 10:05:46;;;;;;;0.00;0.00;;;23.10;71.30;;;;;;5009250;28;20037;-67
2022/09/20 10:08:23;;;;;;;0.00;0.00;;;23.30;71.30;;;;;;5024203;28;20493;-74
2022/09/20 10:10:49;;;;;;;;;;;23.30;71.00;;;;;;5026927;28;20033;-77
2022/09/20 10:13:25;;;;;;;0.00;0.00;;;23.20;70.90;;;;;;5031264;28;19909;-78
2022/09/20 10:15:58;;;;;;;0.00;0.00;;;23.20;71.00;;;;;;5030635;28;20022;-75
2022/09/20 10:18:51;;;;;;;0.00;0.00;;;23.20;71.20;;;;;;5030339;28;20017;-76
2022/09/20 10:21:55;;;;;;;0.00;0.00;;;23.40;71.20;;;;;;5029859;28;20096;-75
2022/09/20 10:24:43;;;;;;;0.13;0.10;;;23.50;71.10;;;;;;5028802;28;20017;-76
2022/09/20 10:27:31;;;;;;;0.00;0.00;;;23.50;70.90;;;;;;5025845;28;20140;-77
2022/09/20 10:30:15;;;;;;;0.10;0.00;;;23.50;70.90;;;;;;5028081;28;20044;-73
2022/09/20 10:33:09;;;;;;;0.00;0.00;;;23.40;70.90;;;;;;5029723;28;20052;-74
2022/09/20 10:36:03;;;;;;;0.00;0.00;;;23.40;70.90;;;;;;5027530;28;20030;-75
2022/09/20 10:38:43;;;;;;;0.00;0.00;;;23.20;70.80;;;;;;5012307;28;20083;-77
2022/09/20 10:44:22;;;;;;;0.00;0.00;;;22.90;71.00;;;;;;5027774;28;20091;-77
2022/09/20 10:47:01;;;;;;;0.00;0.00;;;22.80;71.20;;;;;;5029582;28;20022;-78
2022/09/20 10:50:18;;;;;;;0.00;0.00;;;23.00;71.40;;;;;;5026757;28;20049;-75
2022/09/20 10:53:08;;;;;;;0.00;0.00;;;23.10;71.30;;;;;;5015000;28;20076;-75
2022/09/20 10:56:15;;;;;;;0.00;0.00;;;23.30;71.30;;;;;;5029377;28;20022;-79
2022/09/20 10:59:19;;;;;;;0.00;0.00;;;23.40;71.20;;;;;;5006151;28;20040;-76
2022/09/20 11:02:12;;;;;;;0.00;0.00;;;23.50;71.20;;;;;;5027839;28;20052;-77
2022/09/20 11:05:08;;;;;;;0.00;0.00;;;23.70;71.10;;;;;;5029357;28;20464;-77
2022/09/20 11:07:59;;;;;;;0.00;0.00;;;23.80;71.80;;;;;;5029387;28;20022;-77
2022/09/20 11:10:53;;;;;;;0.00;0.00;;;23.80;71.50;;;;;;5028958;28;20078;-77
2022/09/20 11:13:40;;;;;;;0.13;0.13;;;24.00;71.60;;;;;;5019951;28;20071;-77
2022/09/20 11:16:35;;;;;;;0.00;0.00;;;24.40;71.60;;;;;;5028778;28;20035;-76
2022/09/20 11:19:30;;;;;;;0.00;0.00;;;24.70;71.30;;;;;;5002237;28;20632;-75
2022/09/20 11:22:21;;;;;;;0.00;0.00;;;24.90;71.40;;;;;;5029295;28;20541;-78
2022/09/20 11:24:54;;;;;;;0.00;0.00;;;25.40;71.70;;;;;;5014750;28;20039;-77
2022/09/20 11:27:25;;;;;;;0.00;0.00;;;25.80;71.50;;;;;;5028312;28;20021;-76
2022/09/20 11:30:16;;;;;;;0.00;0.00;;;26.00;71.30;;;;;;5027637;28;20097;-75
2022/09/20 11:32:41;;;;;;;0.00;0.00;;;26.10;71.60;;;;;;5017450;28;20034;-75
2022/09/20 11:35:10;;;;;;;0.00;0.00;;;26.20;72.30;;;;;;5025815;28;20083;-77
2022/09/20 11:37:46;;;;;;;0.00;0.00;;;26.50;72.50;;;;;;5018849;28;20113;-76
2022/09/20 11:40:30;;;;;;;0.55;0.35;;;26.90;72.50;;;;;;5018654;28;20377;-74
2022/09/20 11:43:00;;;;;;;0.00;0.00;;;27.00;72.00;;;;;;5025097;28;20533;-76
2022/09/20 11:45:28;;;;;;;0.00;0.00;;;27.00;71.70;;;;;;5027426;28;20454;-75
2022/09/20 11:48:13;;;;;;;0.08;0.08;;;27.00;71.60;;;;;;5026713;28;20625;-77
2022/09/20 11:51:16;;;;;;;0.17;0.10;;;26.90;71.70;;;;;;5026559;28;20085;-77
2022/09/20 11:54:14;;;;;;;0.00;0.00;;;27.10;72.00;;;;;;5025316;28;20021;-75
2022/09/20 11:56:40;;;;;;;0.00;0.00;;;27.60;72.30;;;;;;5025565;28;20064;-77
2022/09/20 11:59:25;;;;;;;0.00;0.00;;;27.80;72.10;;;;;;5027615;28;20124;-78
2022/09/20 12:01:55;;;;;;;0.13;0.10;;;28.10;72.10;;;;;;5027166;28;20059;-76
2022/09/20 12:04:25;;;;;;;0.00;0.00;;;28.20;72.10;;;;;;5027129;28;20108;-78
2022/09/20 12:07:17;;;;;;;0.00;0.00;;;28.30;72.00;;;;;;5026317;28;20113;-75
2022/09/20 12:09:50;;;;;;;0.25;0.10;;;28.40;72.00;;;;;;5025212;28;20045;-75
2022/09/20 12:12:41;;;;;;;0.00;0.00;;;28.40;72.10;;;;;;5024467;28;20022;-75
2022/09/20 12:15:33;;;;;;;0.00;0.00;;;28.50;72.40;;;;;;5016291;28;20459;-77
2022/09/20 12:17:58;;;;;;;0.00;0.00;;;28.90;72.70;;;;;;5025695;28;20480;-75
2022/09/20 12:20:41;;;;;;;0.00;0.00;;;29.40;73.10;;;;;;5019345;28;20215;-73
2022/09/20 12:23:44;;;;;;;0.00;0.00;;;29.80;72.90;;;;;;5024826;28;20099;-78
2022/09/20 12:26:19;;;;;;;0.00;0.00;;;30.10;72.70;;;;;;5025784;28;20716;-76
2022/09/20 12:28:50;;;;;;;0.00;0.00;;;30.20;72.30;;;;;;5015232;28;20026;-77
2022/09/20 12:31:27;;;;;;;0.00;0.00;;;30.20;72.40;;;;;;5025063;28;20029;-80
2022/09/20 12:34:08;;;;;;;0.00;0.00;;;30.20;72.40;;;;;;5027572;28;20581;-77
2022/09/20 12:36:42;;;;;;;0.00;0.00;;;30.10;72.50;;;;;;5025577;28;20025;-75
2022/09/20 12:39:09;;;;;;;0.05;0.05;;;30.20;72.80;;;;;;5018769;28;20026;-77
2022/09/20 12:41:55;;;;;;;0.00;0.00;;;30.00;73.00;;;;;;5018275;28;20030;-76
2022/09/20 12:44:23;;;;;;;0.00;0.00;;;30.00;73.40;;;;;;5024397;28;20013;-75
2022/09/20 12:46:55;;;;;;;0.00;0.00;;;30.30;73.80;;;;;;5027198;28;20017;-73
2022/09/20 12:55:29;;;;;;;0.00;0.00;;;30.60;73.20;;;;;;5017054;28;20036;-73
2022/09/20 12:58:02;;;;;;;0.00;0.00;;;30.40;73.50;;;;;;5017290;28;20021;-73
2022/09/20 13:00:39;;;;;;;0.00;0.00;;;30.20;73.70;;;;;;5017531;28;20099;-75
2022/09/20 13:03:11;;;;;;;0.00;0.00;;;30.10;73.70;;;;;;5023816;28;20017;-75
2022/09/20 13:05:45;;;;;;;0.00;0.00;;;29.90;72.90;;;;;;5026756;28;20006;-75
2022/09/20 13:08:14;;;;;;;0.00;0.00;;;29.40;73.00;;;;;;5026515;28;20025;-75
2022/09/20 13:11:00;;;;;;;0.00;0.00;;;29.20;73.30;;;;;;5024171;28;20025;-77
2022/09/20 13:13:49;;;;;;;0.15;0.10;;;28.90;73.00;;;;;;5027850;28;20022;-74
2022/09/20 13:16:38;;;;;;;0.00;0.00;;;28.30;72.60;;;;;;5029736;28;20068;-77
2022/09/20 13:19:19;;;;;;;0.00;0.00;;;28.10;73.30;;;;;;5029392;28;20025;-75
2022/09/20 13:21:56;;;;;;;0.00;0.00;;;27.90;73.00;;;;;;5027584;28;20021;-75
2022/09/20 13:24:24;;;;;;;0.30;0.10;;;27.50;72.00;;;;;;5017800;28;20029;-76
2022/09/20 13:26:53;;;;;;;0.00;0.00;;;26.90;72.00;;;;;;5030679;28;20022;-76
2022/09/20 13:29:43;;;;;;;0.73;0.43;;;26.80;72.60;;;;;;5026831;28;20033;-74
2022/09/20 13:32:22;;;;;;;0.00;0.00;;;26.60;72.60;;;;;;5021302;28;20035;-75
2022/09/20 13:35:12;;;;;;;0.00;0.00;;;26.40;71.90;;;;;;5026408;28;20029;-75
2022/09/20 13:37:52;;;;;;;0.13;0.13;;;25.90;71.60;;;;;;5027027;28;20582;-75
2022/09/20 13:40:22;;;;;;;0.00;0.00;;;25.40;71.70;;;;;;5029150;28;20029;-75
2022/09/20 13:42:50;;;;;;;0.00;0.00;;;25.30;72.40;;;;;;5029328;28;20100;-75
2022/09/20 13:45:18;;;;;;;0.00;0.00;;;25.30;72.40;;;;;;5028349;28;20477;-74
2022/09/20 13:47:49;;;;;;;0.00;0.00;;;25.40;72.40;;;;;;5027939;28;20034;-75
2022/09/20 13:50:22;;;;;;;0.00;0.00;;;25.40;71.80;;;;;;5027224;28;20057;-76
2022/09/20 13:52:56;;;;;;;0.10;0.05;;;25.30;71.20;;;;;;5027507;28;20060;-74
2022/09/20 13:55:34;;;;;;;0.00;0.00;;;25.10;71.10;;;;;;5027259;28;20151;-75
2022/09/20 13:58:18;;;;;;;0.00;0.00;;;24.80;70.90;;;;;;5027053;28;20017;-73
2022/09/20 14:00:48;;;;;;;0.00;0.00;;;24.40;70.90;;;;;;5007174;28;20045;-76
2022/09/20 14:03:17;;;;;;;0.00;0.00;;;24.20;71.00;;;;;;5009490;28;20026;-76